Time;durP1;ratioP1;P1;durP2;ratioP2;P2;SDS_P1;SDS_P2;PMS_P1;PMS_P2;Temp;Humidity;BMP_temperature;BMP_pressure;BME280_temperature;BME280_humidity;BME280_pressure;Samples;Min_cycle;Max_cycle;Signal;HPM_P1;HPM_P2
2021/10/24 00:02:25;;;;;;;28.27;15.67;;;;;;;;;;5016583;28;20215;-69
2021/10/24 00:04:50;;;;;;;30.23;14.93;;;;;;;;;;5028444;28;20715;-69
2021/10/24 00:07:16;;;;;;;34.43;16.57;;;;;;;;;;5018022;28;20190;-69
2021/10/24 00:09:41;;;;;;;25.83;14.90;;;;;;;;;;5028108;28;20269;-69
2021/10/24 00:12:06;;;;;;;28.63;15.63;;;;;;;;;;5018041;28;20220;-69
2021/10/24 00:14:32;;;;;;;26.70;15.83;;;;;;;;;;5029459;28;20226;-70
2021/10/24 00:16:57;;;;;;;31.70;15.80;;;;;;;;;;5029149;28;20193;-69
2021/10/24 00:19:23;;;;;;;32.77;16.53;;;;;;;;;;5019425;28;20202;-69
2021/10/24 00:21:48;;;;;;;26.53;14.90;;;;;;;;;;5024674;28;20206;-69
2021/10/24 00:24:14;;;;;;;25.27;15.27;;;;;;;;;;5018058;28;20209;-69
2021/10/24 00:26:39;;;;;;;28.33;14.90;;;;;;;;;;5025473;28;20271;-69
2021/10/24 00:29:05;;;;;;;31.67;15.77;;;;;;;;;;5018792;28;20244;-69
2021/10/24 00:31:30;;;;;;;36.43;15.93;;;;;;;;;;5027068;28;20252;-69
2021/10/24 00:33:57;;;;;;;26.40;16.27;;;;;;;;;;5016732;28;20247;-69
2021/10/24 00:36:23;;;;;;;30.93;16.37;;;;;;;;;;5025472;28;20664;-69
2021/10/24 00:38:49;;;;;;;30.40;15.33;;;;;;;;;;5019720;28;20205;-69
2021/10/24 00:41:14;;;;;;;27.57;15.87;;;;;;;;;;5025154;28;20676;-69
2021/10/24 00:43:39;;;;;;;28.87;15.27;;;;;;;;;;5015106;28;20197;-69
2021/10/24 00:46:05;;;;;;;27.97;15.57;;;;;;;;;;5025536;28;20573;-69
2021/10/24 00:48:30;;;;;;;29.23;16.03;;;;;;;;;;5026410;28;20189;-69
2021/10/24 00:50:56;;;;;;;32.03;16.60;;;;;;;;;;5015274;28;20233;-69
2021/10/24 00:53:21;;;;;;;27.27;15.03;;;;;;;;;;5025320;28;20182;-69
2021/10/24 00:55:47;;;;;;;32.87;15.87;;;;;;;;;;5018392;28;20277;-69
2021/10/24 00:58:15;;;;;;;31.17;16.70;;;;;;;;;;5027085;28;20190;-69
2021/10/24 01:00:40;;;;;;;27.17;14.93;;;;;;;;;;5017963;28;20193;-69
2021/10/24 01:03:05;;;;;;;27.23;15.40;;;;;;;;;;5024474;28;20666;-69
2021/10/24 01:05:31;;;;;;;30.70;16.27;;;;;;;;;;5016568;28;20661;-69
2021/10/24 01:07:59;;;;;;;31.60;16.00;;;;;;;;;;5020926;28;20272;-70
2021/10/24 01:10:24;;;;;;;36.50;16.40;;;;;;;;;;5018828;28;20701;-69
2021/10/24 01:12:50;;;;;;;26.57;14.47;;;;;;;;;;5022692;28;20312;-69
2021/10/24 01:15:17;;;;;;;31.40;15.60;;;;;;;;;;5016574;28;20202;-69
2021/10/24 01:17:43;;;;;;;29.03;16.10;;;;;;;;;;5022715;28;20348;-69
2021/10/24 01:20:14;;;;;;;27.00;15.50;;;;;;;;;;5025919;28;20300;-69
2021/10/24 01:22:39;;;;;;;27.37;14.97;;;;;;;;;;5017485;28;20202;-69
2021/10/24 01:25:07;;;;;;;28.37;15.93;;;;;;;;;;5025264;28;20190;-69
2021/10/24 01:27:33;;;;;;;31.13;15.27;;;;;;;;;;5017435;28;20239;-69
2021/10/24 01:30:01;;;;;;;32.33;15.87;;;;;;;;;;5027552;28;20198;-69
2021/10/24 01:32:27;;;;;;;30.33;14.07;;;;;;;;;;5015089;28;20182;-69
2021/10/24 01:34:52;;;;;;;29.43;14.73;;;;;;;;;;5024040;28;20551;-69
2021/10/24 01:37:18;;;;;;;26.67;15.30;;;;;;;;;;5013972;28;20189;-69
2021/10/24 01:39:43;;;;;;;24.73;14.70;;;;;;;;;;5024025;28;20619;-69
2021/10/24 01:42:09;;;;;;;31.20;14.83;;;;;;;;;;5015505;28;20211;-69
2021/10/24 01:44:35;;;;;;;33.40;15.63;;;;;;;;;;5021015;28;20213;-69
2021/10/24 01:47:00;;;;;;;28.53;14.43;;;;;;;;;;5016576;28;20190;-69
2021/10/24 01:49:26;;;;;;;29.50;15.10;;;;;;;;;;5023130;28;20193;-69
2021/10/24 01:51:51;;;;;;;34.17;15.70;;;;;;;;;;5021889;28;20197;-69
2021/10/24 01:54:17;;;;;;;31.73;15.10;;;;;;;;;;5013411;28;20624;-69
2021/10/24 01:56:44;;;;;;;32.40;15.80;;;;;;;;;;5024628;28;20289;-69
2021/10/24 01:59:09;;;;;;;30.00;14.67;;;;;;;;;;5016933;28;20264;-69
2021/10/24 02:01:34;;;;;;;26.97;15.27;;;;;;;;;;5020817;28;20263;-69
2021/10/24 02:04:00;;;;;;;26.90;14.57;;;;;;;;;;5014012;28;20202;-69
2021/10/24 02:06:25;;;;;;;25.77;14.37;;;;;;;;;;5022633;28;20174;-69
2021/10/24 02:08:50;;;;;;;26.50;14.70;;;;;;;;;;5016434;28;20218;-69
2021/10/24 02:11:16;;;;;;;23.87;13.83;;;;;;;;;;5019972;28;20183;-68
2021/10/24 02:13:41;;;;;;;27.23;15.27;;;;;;;;;;5015558;28;20559;-69
2021/10/24 02:16:06;;;;;;;37.23;16.17;;;;;;;;;;5019173;28;20189;-69
2021/10/24 02:18:32;;;;;;;27.57;14.77;;;;;;;;;;5015384;28;20193;-69
2021/10/24 02:20:57;;;;;;;27.77;15.30;;;;;;;;;;5019979;28;20388;-69
2021/10/24 02:23:22;;;;;;;31.00;14.23;;;;;;;;;;5024143;28;20188;-69
2021/10/24 02:25:48;;;;;;;28.70;15.87;;;;;;;;;;5015236;28;20209;-68
2021/10/24 02:28:13;;;;;;;30.17;15.40;;;;;;;;;;5022408;28;21457;-69
2021/10/24 02:30:39;;;;;;;33.03;15.03;;;;;;;;;;5015195;28;20403;-69
2021/10/24 02:33:04;;;;;;;28.10;14.80;;;;;;;;;;5023271;28;20597;-68
2021/10/24 02:35:30;;;;;;;31.27;15.50;;;;;;;;;;5018684;28;20182;-68
2021/10/24 02:37:56;;;;;;;33.03;16.07;;;;;;;;;;5021165;28;20209;-68
2021/10/24 02:40:23;;;;;;;33.57;16.87;;;;;;;;;;5014435;28;20631;-68
2021/10/24 02:42:49;;;;;;;35.50;15.13;;;;;;;;;;5020722;28;20567;-69
2021/10/24 02:45:15;;;;;;;30.50;16.50;;;;;;;;;;5017795;28;20194;-69
2021/10/24 02:47:41;;;;;;;32.07;15.50;;;;;;;;;;5021212;28;20192;-68
2021/10/24 02:50:07;;;;;;;29.50;16.53;;;;;;;;;;5024070;28;20186;-69
2021/10/24 02:52:32;;;;;;;32.60;16.17;;;;;;;;;;5015934;28;20205;-69
2021/10/24 02:54:58;;;;;;;29.27;15.47;;;;;;;;;;5022338;28;20217;-69
2021/10/24 02:57:23;;;;;;;28.60;15.73;;;;;;;;;;5017175;28;20220;-69
2021/10/24 02:59:48;;;;;;;31.03;16.03;;;;;;;;;;5022810;28;20274;-68
2021/10/24 03:02:14;;;;;;;35.87;15.87;;;;;;;;;;5015573;28;20333;-69
2021/10/24 03:04:39;;;;;;;34.87;16.57;;;;;;;;;;5024388;28;20321;-68
2021/10/24 03:07:04;;;;;;;31.63;16.67;;;;;;;;;;5013011;28;20264;-68
2021/10/24 03:09:30;;;;;;;28.67;15.67;;;;;;;;;;5016653;28;20234;-68
2021/10/24 03:11:55;;;;;;;35.03;16.93;;;;;;;;;;5017303;28;20236;-69
2021/10/24 03:14:21;;;;;;;32.07;16.23;;;;;;;;;;5024868;28;20192;-68
2021/10/24 03:16:47;;;;;;;35.30;17.27;;;;;;;;;;5015661;28;20178;-69
2021/10/24 03:19:13;;;;;;;37.07;16.30;;;;;;;;;;5024733;28;20188;-69
2021/10/24 03:21:39;;;;;;;39.00;17.43;;;;;;;;;;5022741;28;20555;-69
2021/10/24 03:24:05;;;;;;;32.87;16.70;;;;;;;;;;5015496;28;20713;-69
2021/10/24 03:26:32;;;;;;;38.47;17.73;;;;;;;;;;5025728;28;20261;-69
2021/10/24 03:28:57;;;;;;;35.47;17.13;;;;;;;;;;5017245;28;20619;-69
2021/10/24 03:31:23;;;;;;;32.40;16.90;;;;;;;;;;5027743;28;20178;-70
2021/10/24 03:33:49;;;;;;;33.30;17.20;;;;;;;;;;5018436;28;20205;-69
2021/10/24 03:36:14;;;;;;;30.10;16.23;;;;;;;;;;5027636;28;20731;-69
2021/10/24 03:38:40;;;;;;;35.67;15.87;;;;;;;;;;5018489;28;20261;-69
2021/10/24 03:41:06;;;;;;;33.63;17.80;;;;;;;;;;5025237;28;20182;-69
2021/10/24 03:43:31;;;;;;;33.10;16.43;;;;;;;;;;5019532;28;20239;-69
2021/10/24 03:45:57;;;;;;;39.13;18.47;;;;;;;;;;5016704;28;20356;-69
2021/10/24 03:48:23;;;;;;;31.83;17.07;;;;;;;;;;5016294;28;20189;-69
2021/10/24 03:50:48;;;;;;;39.93;17.30;;;;;;;;;;5028074;28;20256;-69
2021/10/24 03:53:15;;;;;;;38.07;17.53;;;;;;;;;;5025630;28;20540;-69
2021/10/24 03:55:40;;;;;;;37.07;17.17;;;;;;;;;;5019638;28;20197;-69
2021/10/24 03:58:06;;;;;;;36.97;18.17;;;;;;;;;;5024340;28;21948;-69
2021/10/24 04:00:32;;;;;;;39.03;17.63;;;;;;;;;;5018821;28;20807;-69
2021/10/24 04:02:59;;;;;;;37.90;17.27;;;;;;;;;;5021683;28;20240;-69
2021/10/24 04:05:27;;;;;;;37.90;17.77;;;;;;;;;;5018629;28;20190;-68
2021/10/24 04:07:54;;;;;;;33.10;17.43;;;;;;;;;;5024981;28;20226;-69
2021/10/24 04:10:21;;;;;;;37.13;17.13;;;;;;;;;;5015708;28;20539;-69
2021/10/24 04:12:47;;;;;;;35.27;17.60;;;;;;;;;;5027848;28;20243;-68
2021/10/24 04:15:13;;;;;;;42.33;17.80;;;;;;;;;;5017419;28;20665;-69
2021/10/24 04:17:39;;;;;;;42.27;18.13;;;;;;;;;;5023581;28;20185;-69
2021/10/24 04:20:07;;;;;;;35.03;16.70;;;;;;;;;;5019787;28;20261;-69
2021/10/24 04:22:32;;;;;;;41.27;18.73;;;;;;;;;;5023053;28;20563;-69
2021/10/24 04:24:58;;;;;;;35.90;18.70;;;;;;;;;;5019691;28;20269;-69
2021/10/24 04:27:23;;;;;;;39.27;18.90;;;;;;;;;;5024368;28;20182;-69
2021/10/24 04:29:48;;;;;;;37.80;18.47;;;;;;;;;;5024124;28;20194;-69
2021/10/24 04:32:14;;;;;;;39.20;18.60;;;;;;;;;;5011321;28;20197;-69
2021/10/24 04:34:39;;;;;;;38.67;18.07;;;;;;;;;;5026018;28;20178;-69
2021/10/24 04:37:05;;;;;;;40.20;19.43;;;;;;;;;;5018546;28;20562;-69
2021/10/24 04:39:30;;;;;;;42.17;18.07;;;;;;;;;;5024374;28;20638;-69
2021/10/24 04:41:55;;;;;;;36.97;17.90;;;;;;;;;;5019587;28;20202;-69
2021/10/24 04:44:21;;;;;;;37.83;17.80;;;;;;;;;;5024687;28;20182;-69
2021/10/24 04:46:46;;;;;;;43.90;17.80;;;;;;;;;;5017425;28;20197;-69
2021/10/24 04:49:11;;;;;;;36.23;17.33;;;;;;;;;;5022482;28;20186;-69
2021/10/24 04:51:37;;;;;;;42.03;18.23;;;;;;;;;;5016017;28;20218;-69
2021/10/24 04:54:02;;;;;;;41.30;18.07;;;;;;;;;;5024777;28;20265;-69
2021/10/24 04:56:27;;;;;;;34.27;17.37;;;;;;;;;;5019450;28;20344;-69
2021/10/24 04:58:53;;;;;;;34.27;17.03;;;;;;;;;;5014456;28;20194;-69
2021/10/24 05:01:18;;;;;;;35.03;17.87;;;;;;;;;;5026157;28;20186;-68
2021/10/24 05:03:44;;;;;;;37.87;17.60;;;;;;;;;;5016934;28;20194;-69
2021/10/24 05:06:10;;;;;;;38.37;18.13;;;;;;;;;;5024443;28;20257;-69
2021/10/24 05:08:36;;;;;;;40.10;18.37;;;;;;;;;;5018098;28;20316;-69
2021/10/24 05:11:02;;;;;;;38.27;17.57;;;;;;;;;;5024758;28;20188;-69
2021/10/24 05:13:27;;;;;;;38.83;17.37;;;;;;;;;;5014573;28;20283;-69
2021/10/24 05:15:52;;;;;;;41.80;17.33;;;;;;;;;;5023367;28;20205;-69
2021/10/24 05:18:18;;;;;;;39.53;17.67;;;;;;;;;;5014725;28;20598;-69
2021/10/24 05:20:43;;;;;;;35.20;17.53;;;;;;;;;;5023708;28;20882;-69
2021/10/24 05:23:08;;;;;;;40.63;17.60;;;;;;;;;;5014597;28;20551;-68
2021/10/24 05:25:34;;;;;;;36.10;17.33;;;;;;;;;;5026804;28;20549;-69
2021/10/24 05:27:59;;;;;;;36.53;18.13;;;;;;;;;;5024390;28;20221;-69
2021/10/24 05:30:25;;;;;;;36.57;17.93;;;;;;;;;;5012501;28;20265;-69
2021/10/24 05:32:51;;;;;;;41.37;18.47;;;;;;;;;;5026122;28;20821;-69
2021/10/24 05:35:16;;;;;;;37.30;18.30;;;;;;;;;;5013716;28;20289;-69
2021/10/24 05:37:42;;;;;;;41.23;18.23;;;;;;;;;;5025906;28;20193;-69
2021/10/24 05:40:08;;;;;;;45.77;19.43;;;;;;;;;;5015825;28;20654;-69
2021/10/24 05:42:33;;;;;;;39.87;17.67;;;;;;;;;;5022334;28;20273;-69
2021/10/24 05:44:58;;;;;;;38.67;18.23;;;;;;;;;;5016268;28;20189;-69
2021/10/24 05:47:24;;;;;;;42.60;18.60;;;;;;;;;;5022672;28;20210;-69
2021/10/24 05:49:50;;;;;;;41.43;18.70;;;;;;;;;;5011014;28;20271;-69
2021/10/24 05:52:16;;;;;;;41.97;18.73;;;;;;;;;;5018636;28;20598;-69
2021/10/24 05:54:41;;;;;;;39.17;18.03;;;;;;;;;;5013279;28;20221;-69
2021/10/24 05:57:07;;;;;;;42.63;19.83;;;;;;;;;;5023170;28;20272;-69
2021/10/24 05:59:32;;;;;;;38.17;18.10;;;;;;;;;;5021363;28;20197;-69
2021/10/24 06:01:57;;;;;;;43.13;18.80;;;;;;;;;;5014074;28;20328;-69
2021/10/24 06:04:22;;;;;;;39.90;18.57;;;;;;;;;;5020153;28;20621;-70
2021/10/24 06:06:48;;;;;;;41.30;17.67;;;;;;;;;;5014672;28;20182;-70
2021/10/24 06:09:13;;;;;;;38.03;18.03;;;;;;;;;;5022752;28;20234;-70
2021/10/24 06:11:58;;;;;;;32.73;17.30;;;;;;;;;;5014840;28;20280;-70
2021/10/24 06:14:24;;;;;;;42.67;17.83;;;;;;;;;;5022227;28;20186;-70
2021/10/24 06:16:49;;;;;;;39.97;17.67;;;;;;;;;;5013461;28;20560;-70
2021/10/24 06:19:15;;;;;;;34.63;16.57;;;;;;;;;;5020680;28;20268;-70
2021/10/24 06:21:40;;;;;;;41.47;17.63;;;;;;;;;;5012015;28;20214;-70
2021/10/24 06:24:05;;;;;;;42.10;17.57;;;;;;;;;;5024334;28;20255;-70
2021/10/24 06:26:31;;;;;;;43.13;17.13;;;;;;;;;;5015318;28;20198;-70
2021/10/24 06:28:57;;;;;;;37.90;18.60;;;;;;;;;;5022396;28;20193;-70
2021/10/24 06:31:22;;;;;;;38.67;19.07;;;;;;;;;;5013590;28;20186;-70
2021/10/24 06:33:48;;;;;;;40.33;18.47;;;;;;;;;;5023171;28;20269;-70
2021/10/24 06:36:13;;;;;;;43.10;19.20;;;;;;;;;;5024301;28;20516;-70
2021/10/24 06:38:39;;;;;;;42.07;17.83;;;;;;;;;;5011726;28;20540;-70
2021/10/24 06:41:04;;;;;;;39.60;18.13;;;;;;;;;;5026013;28;20570;-70
2021/10/24 06:43:29;;;;;;;40.80;19.07;;;;;;;;;;5011275;28;20556;-70
2021/10/24 06:45:55;;;;;;;45.50;19.13;;;;;;;;;;5020895;28;20623;-70
2021/10/24 06:48:20;;;;;;;45.57;18.50;;;;;;;;;;5005299;28;20610;-70
2021/10/24 06:50:46;;;;;;;45.93;20.20;;;;;;;;;;5019963;28;20186;-70
2021/10/24 06:53:11;;;;;;;46.47;20.80;;;;;;;;;;5015133;28;20178;-70
2021/10/24 06:55:36;;;;;;;43.87;20.47;;;;;;;;;;5021054;28;20488;-70
2021/10/24 06:58:02;;;;;;;39.87;20.27;;;;;;;;;;5013533;28;20366;-70
2021/10/24 07:00:28;;;;;;;41.40;19.50;;;;;;;;;;5021388;28;20664;-70
2021/10/24 07:02:54;;;;;;;44.43;19.53;;;;;;;;;;5018046;28;20659;-70
2021/10/24 07:05:20;;;;;;;42.47;20.47;;;;;;;;;;5016845;28;20187;-70
2021/10/24 07:07:46;;;;;;;45.00;20.00;;;;;;;;;;5022551;28;20236;-70
2021/10/24 07:10:13;;;;;;;39.90;17.93;;;;;;;;;;5014068;28;20222;-70
2021/10/24 07:12:38;;;;;;;43.63;19.87;;;;;;;;;;5022767;28;20599;-70
2021/10/24 07:15:05;;;;;;;46.63;21.43;;;;;;;;;;5012826;28;20305;-70
2021/10/24 07:17:31;;;;;;;48.40;21.83;;;;;;;;;;5020630;28;20192;-70
2021/10/24 07:19:56;;;;;;;45.13;21.20;;;;;;;;;;5015055;28;20201;-69
2021/10/24 07:22:21;;;;;;;47.23;21.40;;;;;;;;;;5019424;28;20201;-70
2021/10/24 07:24:47;;;;;;;52.30;21.80;;;;;;;;;;5013027;28;20190;-70
2021/10/24 07:27:12;;;;;;;53.07;23.73;;;;;;;;;;5021414;28;20222;-70
2021/10/24 07:29:37;;;;;;;50.00;24.27;;;;;;;;;;5010487;28;20244;-70
2021/10/24 07:32:03;;;;;;;55.00;25.17;;;;;;;;;;5020589;28;20480;-70
2021/10/24 07:34:28;;;;;;;48.13;23.00;;;;;;;;;;5019249;28;20186;-70
2021/10/24 07:36:54;;;;;;;62.70;26.27;;;;;;;;;;5004921;28;20194;-70
2021/10/24 07:39:19;;;;;;;50.90;25.80;;;;;;;;;;5018895;28;20590;-70
2021/10/24 07:41:45;;;;;;;54.70;24.70;;;;;;;;;;5014737;28;20572;-70
2021/10/24 07:44:13;;;;;;;49.70;24.23;;;;;;;;;;5018195;28;20178;-71
2021/10/24 07:46:38;;;;;;;53.73;24.70;;;;;;;;;;5011914;28;20770;-70
2021/10/24 07:49:04;;;;;;;53.37;25.77;;;;;;;;;;5016310;28;20403;-70
2021/10/24 07:51:30;;;;;;;50.57;24.80;;;;;;;;;;5003258;28;20183;-69
2021/10/24 07:53:55;;;;;;;55.83;25.00;;;;;;;;;;5021595;28;20527;-70
2021/10/24 07:56:22;;;;;;;49.20;24.40;;;;;;;;;;5010758;28;20202;-70
2021/10/24 07:58:48;;;;;;;52.70;24.53;;;;;;;;;;5021371;28;20257;-72
2021/10/24 08:01:16;;;;;;;47.27;23.97;;;;;;;;;;5011800;28;20277;-71
2021/10/24 08:03:42;;;;;;;45.87;21.30;;;;;;;;;;5020056;28;20693;-70
2021/10/24 08:06:08;;;;;;;40.73;21.00;;;;;;;;;;5020530;28;20606;-69
2021/10/24 08:08:36;;;;;;;39.93;20.70;;;;;;;;;;5009970;28;20249;-70
2021/10/24 08:11:03;;;;;;;41.80;20.87;;;;;;;;;;5018298;28;20255;-70
2021/10/24 08:13:28;;;;;;;43.13;19.37;;;;;;;;;;5017397;28;20263;-70
2021/10/24 08:15:53;;;;;;;41.07;20.10;;;;;;;;;;5021788;28;20202;-70
2021/10/24 08:18:19;;;;;;;33.97;19.23;;;;;;;;;;5012135;28;20198;-70
2021/10/24 08:20:46;;;;;;;34.93;17.13;;;;;;;;;;5022481;28;20206;-70
2021/10/24 08:23:12;;;;;;;29.50;16.27;;;;;;;;;;5013872;28;20292;-70
2021/10/24 08:25:37;;;;;;;28.93;16.30;;;;;;;;;;5022816;28;21272;-70
2021/10/24 08:28:03;;;;;;;27.23;15.47;;;;;;;;;;5016693;28;20212;-69
2021/10/24 08:30:28;;;;;;;27.40;14.37;;;;;;;;;;5026203;28;20186;-69
2021/10/24 08:32:54;;;;;;;24.87;13.87;;;;;;;;;;5012620;28;20240;-70
2021/10/24 08:35:20;;;;;;;24.67;12.77;;;;;;;;;;5025141;28;20208;-70
2021/10/24 08:37:47;;;;;;;24.37;12.63;;;;;;;;;;5018368;28;20193;-70
2021/10/24 08:40:12;;;;;;;19.37;12.13;;;;;;;;;;5019032;28;20190;-70
2021/10/24 08:42:39;;;;;;;25.67;12.63;;;;;;;;;;5027541;28;20700;-70
2021/10/24 08:45:05;;;;;;;20.50;11.57;;;;;;;;;;5016579;28;20197;-70
2021/10/24 08:47:31;;;;;;;21.23;11.13;;;;;;;;;;5020263;28;20277;-70
2021/10/24 08:49:56;;;;;;;24.00;10.10;;;;;;;;;;5015171;28;20661;-70
2021/10/24 08:52:23;;;;;;;18.20;10.27;;;;;;;;;;5028190;28;20602;-70
2021/10/24 08:54:54;;;;;;;24.40;9.90;;;;;;;;;;5014378;28;20256;-70
2021/10/24 08:57:26;;;;;;;16.50;9.10;;;;;;;;;;5027038;28;20202;-71
2021/10/24 08:59:54;;;;;;;17.57;9.27;;;;;;;;;;5011565;28;20194;-71
2021/10/24 09:02:21;;;;;;;20.77;9.07;;;;;;;;;;5025429;28;20677;-69
2021/10/24 09:04:53;;;;;;;18.23;9.00;;;;;;;;;;5017795;28;20182;-71
2021/10/24 09:07:19;;;;;;;14.70;8.40;;;;;;;;;;5024685;28;20312;-70
2021/10/24 09:09:45;;;;;;;16.40;8.67;;;;;;;;;;5014384;28;20249;-71
2021/10/24 09:12:15;;;;;;;17.13;8.90;;;;;;;;;;5023730;28;20202;-70
2021/10/24 09:14:47;;;;;;;14.60;8.30;;;;;;;;;;5018407;28;20749;-70
2021/10/24 09:17:19;;;;;;;14.43;8.43;;;;;;;;;;5027106;28;20193;-71
2021/10/24 09:19:51;;;;;;;15.23;8.10;;;;;;;;;;5022904;28;20246;-71
2021/10/24 09:22:20;;;;;;;14.50;7.83;;;;;;;;;;5019277;28;20587;-71
2021/10/24 09:25:04;;;;;;;13.73;7.80;;;;;;;;;;5024539;28;20579;-70
2021/10/24 09:27:39;;;;;;;11.67;7.87;;;;;;;;;;5016284;28;20194;-71
2021/10/24 09:30:12;;;;;;;17.20;7.90;;;;;;;;;;5023620;28;20287;-70
2021/10/24 09:32:58;;;;;;;12.77;7.43;;;;;;;;;;5014744;28;20185;-70
2021/10/24 09:35:29;;;;;;;12.87;7.37;;;;;;;;;;5024842;28;20274;-69
2021/10/24 09:37:59;;;;;;;12.87;6.97;;;;;;;;;;5017009;28;20256;-70
2021/10/24 09:40:36;;;;;;;12.10;7.43;;;;;;;;;;5025654;28;20239;-70
2021/10/24 09:43:17;;;;;;;11.93;6.40;;;;;;;;;;5015660;28;20296;-70
2021/10/24 09:45:45;;;;;;;15.90;6.57;;;;;;;;;;5023584;28;20196;-72
2021/10/24 09:48:12;;;;;;;13.43;5.90;;;;;;;;;;5004976;28;20498;-71
2021/10/24 09:50:52;;;;;;;12.02;6.20;;;;;;;;;;5020907;28;20200;-70
2021/10/24 09:53:28;;;;;;;12.02;6.25;;;;;;;;;;5006247;28;20257;-71
2021/10/24 09:55:53;;;;;;;11.73;5.60;;;;;;;;;;5027398;28;20642;-71
2021/10/24 09:58:26;;;;;;;11.90;5.45;;;;;;;;;;5015534;28;20200;-70
2021/10/24 10:00:52;;;;;;;10.30;5.55;;;;;;;;;;5021206;28;20555;-71
2021/10/24 10:03:22;;;;;;;9.95;5.75;;;;;;;;;;5014992;28;20233;-70
2021/10/24 10:05:47;;;;;;;10.27;5.40;;;;;;;;;;5023999;28;20239;-72
2021/10/24 10:08:14;;;;;;;12.70;5.72;;;;;;;;;;5014343;28;20194;-72
2021/10/24 10:10:43;;;;;;;13.20;5.65;;;;;;;;;;5021596;28;20194;-72
2021/10/24 10:13:14;;;;;;;13.50;5.30;;;;;;;;;;5013624;28;20640;-70
2021/10/24 10:15:42;;;;;;;7.82;4.57;;;;;;;;;;5019719;28;20178;-71
2021/10/24 10:18:08;;;;;;;9.65;4.40;;;;;;;;;;5010088;28;20189;-71
2021/10/24 10:20:42;;;;;;;14.27;5.10;;;;;;;;;;5024189;28;20244;-71
2021/10/24 10:23:10;;;;;;;10.52;5.07;;;;;;;;;;5019883;28;20205;-71
2021/10/24 10:25:38;;;;;;;10.27;4.45;;;;;;;;;;5017416;28;20629;-71
2021/10/24 10:28:05;;;;;;;10.75;4.50;;;;;;;;;;5020663;28;20186;-72
2021/10/24 10:30:33;;;;;;;8.60;4.95;;;;;;;;;;5016459;28;20247;-73
2021/10/24 10:33:00;;;;;;;7.35;4.03;;;;;;;;;;5023065;28;20184;-73
2021/10/24 10:35:27;;;;;;;8.02;3.97;;;;;;;;;;5016800;28;20530;-72
2021/10/24 10:37:55;;;;;;;9.57;4.63;;;;;;;;;;5023501;28;20316;-72
2021/10/24 10:40:25;;;;;;;8.90;4.00;;;;;;;;;;5007947;28;20204;-71
2021/10/24 10:43:13;;;;;;;9.00;4.95;;;;;;;;;;5021425;28;20206;-72
2021/10/24 10:45:45;;;;;;;7.47;4.35;;;;;;;;;;5014079;28;20269;-72
2021/10/24 10:48:30;;;;;;;8.15;4.25;;;;;;;;;;5023102;28;20171;-73
2021/10/24 10:50:56;;;;;;;9.20;4.35;;;;;;;;;;5011957;28;20190;-74
2021/10/24 10:53:32;;;;;;;8.38;4.82;;;;;;;;;;5020481;28;20280;-73
2021/10/24 10:56:00;;;;;;;8.25;4.70;;;;;;;;;;5014697;28;20280;-73
2021/10/24 10:58:33;;;;;;;6.35;4.53;;;;;;;;;;5020618;28;20528;-72
2021/10/24 11:00:59;;;;;;;6.75;4.10;;;;;;;;;;5013468;28;20630;-71
2021/10/24 11:03:48;;;;;;;7.60;4.22;;;;;;;;;;5022711;28;20248;-74
2021/10/24 11:06:22;;;;;;;9.48;4.43;;;;;;;;;;5014885;28;20533;-72
2021/10/24 11:09:10;;;;;;;13.82;5.07;;;;;;;;;;5023918;28;20272;-74
2021/10/24 11:11:41;;;;;;;8.68;4.25;;;;;;;;;;5013804;28;20555;-73
2021/10/24 11:14:15;;;;;;;7.90;4.63;;;;;;;;;;5017323;28;20195;-75
2021/10/24 11:16:51;;;;;;;8.98;4.25;;;;;;;;;;5013475;28;20205;-74
2021/10/24 11:19:25;;;;;;;8.13;4.60;;;;;;;;;;5021560;28;20207;-72
2021/10/24 11:22:11;;;;;;;9.88;4.82;;;;;;;;;;5014017;28;20282;-73
2021/10/24 11:24:48;;;;;;;8.18;4.32;;;;;;;;;;5021385;28;20233;-73
2021/10/24 11:27:16;;;;;;;6.78;4.70;;;;;;;;;;5013926;28;20676;-73
2021/10/24 11:29:53;;;;;;;10.25;5.05;;;;;;;;;;5021465;28;20186;-73
2021/10/24 11:32:35;;;;;;;10.35;4.53;;;;;;;;;;5013943;28;20653;-74
2021/10/24 11:35:10;;;;;;;8.50;4.75;;;;;;;;;;5023549;28;20182;-73
2021/10/24 11:37:39;;;;;;;11.13;5.47;;;;;;;;;;5015730;28;20189;-74
2021/10/24 11:40:17;;;;;;;9.98;4.80;;;;;;;;;;5023840;28;20186;-73
2021/10/24 11:43:01;;;;;;;10.70;5.00;;;;;;;;;;5014547;28;20657;-73
2021/10/24 11:45:29;;;;;;;9.98;4.80;;;;;;;;;;5025619;28;20540;-73
2021/10/24 11:48:06;;;;;;;8.32;4.65;;;;;;;;;;5018652;28;20223;-74
2021/10/24 11:50:47;;;;;;;10.65;4.30;;;;;;;;;;5029032;28;20182;-73
2021/10/24 11:53:41;;;;;;;7.88;4.53;;;;;;;;;;5019180;28;20191;-74
2021/10/24 11:56:09;;;;;;;8.98;4.63;;;;;;;;;;5027123;28;20206;-74
2021/10/24 12:01:09;;;;;;;9.63;4.25;;;;;;;;;;5026241;28;20293;-73
2021/10/24 12:03:35;;;;;;;9.52;4.55;;;;;;;;;;5015214;28;20269;-72
2021/10/24 12:06:02;;;;;;;10.80;4.25;;;;;;;;;;5026399;28;20193;-74
2021/10/24 12:09:02;;;;;;;9.48;4.88;;;;;;;;;;5026062;28;20684;-73
2021/10/24 12:11:42;;;;;;;8.43;4.55;;;;;;;;;;5026746;28;20189;-73
2021/10/24 12:14:12;;;;;;;8.27;4.72;;;;;;;;;;5015145;28;20603;-72
2021/10/24 12:16:40;;;;;;;9.65;4.50;;;;;;;;;;5024894;28;20646;-74
2021/10/24 12:19:31;;;;;;;9.10;4.65;;;;;;;;;;5024022;28;20182;-74
2021/10/24 12:22:02;;;;;;;9.57;4.13;;;;;;;;;;5024251;28;20208;-74
2021/10/24 12:24:30;;;;;;;9.20;4.13;;;;;;;;;;5022855;28;20188;-73
2021/10/24 12:27:07;;;;;;;9.82;5.22;;;;;;;;;;5027541;28;20272;-74
2021/10/24 12:29:32;;;;;;;10.77;4.78;;;;;;;;;;5024530;28;20209;-74
2021/10/24 12:32:07;;;;;;;8.68;4.20;;;;;;;;;;5014628;28;20182;-72
2021/10/24 12:34:32;;;;;;;7.82;3.97;;;;;;;;;;5027008;28;20652;-75
2021/10/24 12:36:58;;;;;;;7.40;4.13;;;;;;;;;;5012977;28;20181;-74
2021/10/24 12:39:26;;;;;;;8.00;3.88;;;;;;;;;;5027197;28;20186;-75
2021/10/24 12:41:51;;;;;;;6.13;3.67;;;;;;;;;;5014337;28;20209;-74
2021/10/24 12:44:30;;;;;;;7.38;4.07;;;;;;;;;;5026860;28;20208;-73
2021/10/24 12:46:56;;;;;;;6.13;3.80;;;;;;;;;;5017731;28;20217;-72
2021/10/24 12:49:23;;;;;;;6.50;4.22;;;;;;;;;;5025684;28;20684;-73
2021/10/24 12:51:51;;;;;;;6.40;4.00;;;;;;;;;;5014763;28;20245;-74
2021/10/24 12:54:30;;;;;;;10.77;4.25;;;;;;;;;;5025929;28;20186;-74
2021/10/24 12:56:56;;;;;;;6.72;3.70;;;;;;;;;;5015803;28;20276;-73
2021/10/24 12:59:21;;;;;;;7.63;4.13;;;;;;;;;;5025474;28;20202;-73
2021/10/24 13:01:48;;;;;;;11.63;3.85;;;;;;;;;;5018734;28;20201;-74
2021/10/24 13:04:14;;;;;;;7.00;3.95;;;;;;;;;;5025860;28;20193;-73
2021/10/24 13:06:39;;;;;;;7.22;4.03;;;;;;;;;;5018067;28;20608;-74
2021/10/24 13:09:06;;;;;;;9.73;4.13;;;;;;;;;;5026083;28;20244;-74
2021/10/24 13:11:32;;;;;;;6.38;3.72;;;;;;;;;;5024439;28;20263;-74
2021/10/24 13:13:57;;;;;;;9.73;4.22;;;;;;;;;;5018335;28;20192;-74
2021/10/24 13:16:23;;;;;;;6.25;3.78;;;;;;;;;;5023572;28;20593;-73
2021/10/24 13:18:49;;;;;;;6.63;3.92;;;;;;;;;;5017443;28;20178;-72
2021/10/24 13:22:54;;;;;;;9.00;4.20;;;;;;;;;;5025055;28;20638;-72
2021/10/24 13:24:12;;;;;;;6.97;4.10;;;;;;;;;;5018548;28;20202;-72
2021/10/24 13:26:43;;;;;;;10.35;4.45;;;;;;;;;;5026190;28;20210;-74
2021/10/24 13:29:10;;;;;;;6.07;3.30;;;;;;;;;;5010375;28;20668;-73
2021/10/24 13:31:36;;;;;;;7.93;3.80;;;;;;;;;;5024822;28;20174;-72
2021/10/24 13:34:03;;;;;;;5.95;3.50;;;;;;;;;;5015043;28;20193;-74
2021/10/24 13:36:29;;;;;;;7.57;3.65;;;;;;;;;;5022798;28;20182;-74
2021/10/24 13:38:54;;;;;;;7.25;3.63;;;;;;;;;;5018235;28;20186;-73
2021/10/24 13:41:20;;;;;;;7.75;3.67;;;;;;;;;;5027086;28;20195;-73
2021/10/24 13:43:46;;;;;;;8.18;3.70;;;;;;;;;;5015388;28;20224;-74
2021/10/24 13:46:12;;;;;;;7.55;4.30;;;;;;;;;;5023073;28;20185;-74
2021/10/24 13:48:39;;;;;;;8.65;4.10;;;;;;;;;;5020707;28;20595;-73
2021/10/24 13:51:04;;;;;;;12.00;3.70;;;;;;;;;;5022870;28;20223;-74
2021/10/24 13:53:30;;;;;;;6.85;3.90;;;;;;;;;;5024528;28;20281;-73
2021/10/24 13:55:56;;;;;;;7.45;3.55;;;;;;;;;;5015830;28;20502;-72
2021/10/24 13:58:22;;;;;;;12.10;4.05;;;;;;;;;;5028108;28;20665;-74
2021/10/24 14:00:48;;;;;;;6.70;3.65;;;;;;;;;;5013426;28;20182;-74
2021/10/24 14:03:13;;;;;;;8.13;3.67;;;;;;;;;;5024575;28;20202;-73
2021/10/24 14:05:38;;;;;;;7.40;3.20;;;;;;;;;;5018557;28;20356;-71
2021/10/24 14:08:04;;;;;;;5.00;2.88;;;;;;;;;;5023582;28;20232;-74
2021/10/24 14:10:31;;;;;;;7.28;3.40;;;;;;;;;;5018202;28;20675;-74
2021/10/24 14:12:58;;;;;;;7.45;2.85;;;;;;;;;;5026563;28;20668;-73
2021/10/24 14:15:23;;;;;;;10.55;4.22;;;;;;;;;;5014041;28;20194;-74
2021/10/24 14:17:49;;;;;;;7.85;3.30;;;;;;;;;;5025146;28;20611;-74
2021/10/24 14:20:17;;;;;;;6.95;3.35;;;;;;;;;;5015367;28;20182;-73
2021/10/24 14:22:43;;;;;;;4.93;2.90;;;;;;;;;;5024419;28;20614;-73
2021/10/24 14:25:10;;;;;;;8.85;2.90;;;;;;;;;;5023967;28;20174;-73
2021/10/24 14:27:36;;;;;;;6.70;3.50;;;;;;;;;;5018520;28;20536;-73
2021/10/24 14:30:02;;;;;;;5.68;3.65;;;;;;;;;;5022341;28;20189;-74
2021/10/24 14:32:28;;;;;;;9.80;3.33;;;;;;;;;;5010026;28;20190;-73